createdAt,value
2022-10-22T00:00:52.827Z,100795.19
2022-10-22T00:03:22.517Z,100791.47
2022-10-22T00:05:50.934Z,100794.77
2022-10-22T00:08:19.430Z,100801.33
2022-10-22T00:10:48.059Z,100797.82
2022-10-22T00:13:16.747Z,100790.05
2022-10-22T00:15:45.539Z,100799.59
2022-10-22T00:18:14.009Z,100801.23
2022-10-22T00:20:43.502Z,100804.75
2022-10-22T00:23:12.155Z,100808.84
2022-10-22T00:25:40.896Z,100805.08
2022-10-22T00:28:11.273Z,100801.05
2022-10-22T00:30:40.010Z,100806.42
2022-10-22T00:33:08.656Z,100807.48
2022-10-22T00:35:37.305Z,100813.73
2022-10-22T00:38:06.123Z,100817.53
2022-10-22T00:40:34.797Z,100807.02
2022-10-22T00:43:03.244Z,100807.05
2022-10-22T00:45:31.784Z,100808.40
2022-10-22T00:48:04.871Z,100808.69
2022-10-22T00:50:35.056Z,100807.89
2022-10-22T00:53:04.157Z,100810.36
2022-10-22T00:55:32.757Z,100813.88
2022-10-22T00:58:01.288Z,100820.69
2022-10-22T01:00:30.952Z,100818.53
2022-10-22T01:02:59.661Z,100818.30
2022-10-22T01:05:29.402Z,100819.97
2022-10-22T01:07:57.966Z,100817.50
2022-10-22T01:10:44.796Z,100816.44
2022-10-22T01:13:14.917Z,100819.08
2022-10-22T01:15:48.352Z,100825.00
2022-10-22T01:18:21.221Z,100821.98
2022-10-22T01:20:54.345Z,100822.30
2022-10-22T01:23:44.375Z,100820.37
2022-10-22T01:26:31.296Z,100821.40
2022-10-22T01:29:03.991Z,100823.81
2022-10-22T01:31:33.592Z,100825.61
2022-10-22T01:34:02.186Z,100819.32
2022-10-22T01:36:31.157Z,100820.37
2022-10-22T01:38:59.946Z,100827.06
2022-10-22T01:41:29.253Z,100824.10
2022-10-22T01:43:57.964Z,100823.26
2022-10-22T01:46:27.830Z,100811.67
2022-10-22T01:49:11.732Z,100821.82
2022-10-22T01:51:45.026Z,100825.92
2022-10-22T01:54:24.222Z,100826.42
2022-10-22T01:56:54.442Z,100824.31
2022-10-22T01:59:30.932Z,100826.21
2022-10-22T02:02:07.281Z,100823.98
2022-10-22T02:04:40.182Z,100818.36
2022-10-22T02:07:09.123Z,100817.77
2022-10-22T02:09:37.606Z,100813.72
2022-10-22T02:12:06.946Z,100818.02
2022-10-22T02:14:36.025Z,100817.51
2022-10-22T02:17:04.618Z,100819.38
2022-10-22T02:19:34.739Z,100817.47
2022-10-22T02:22:03.223Z,100812.52
2022-10-22T02:24:31.909Z,100811.72
2022-10-22T02:27:15.118Z,100813.91
2022-10-22T02:29:57.441Z,100814.47
2022-10-22T02:32:27.152Z,100815.06
2022-10-22T02:34:55.687Z,100817.51
2022-10-22T02:37:26.431Z,100819.38
2022-10-22T02:39:54.704Z,100820.21
2022-10-22T02:42:25.357Z,100822.38
2022-10-22T02:44:53.924Z,100822.53
2022-10-22T02:47:22.444Z,100820.43
2022-10-22T02:49:52.272Z,100819.45
2022-10-22T02:52:20.717Z,100822.45
2022-10-22T02:54:49.226Z,100817.01
2022-10-22T02:57:17.976Z,100817.01
2022-10-22T02:59:46.626Z,100820.84
2022-10-22T03:02:16.021Z,100815.19
2022-10-22T03:04:46.590Z,100824.14
2022-10-22T03:07:15.123Z,100823.30
2022-10-22T03:09:43.603Z,100824.61
2022-10-22T03:12:12.084Z,100826.52
2022-10-22T03:14:40.509Z,100828.41
2022-10-22T03:17:09.035Z,100832.47
2022-10-22T03:19:37.551Z,100831.67
2022-10-22T03:22:07.150Z,100836.52
2022-10-22T03:24:40.320Z,100840.36
2022-10-22T03:27:09.022Z,100842.78
2022-10-22T03:29:38.610Z,100844.64
2022-10-22T03:32:07.198Z,100841.39
2022-10-22T03:34:35.608Z,100836.78
2022-10-22T03:37:04.114Z,100843.84
2022-10-22T03:39:32.918Z,100843.87
2022-10-22T03:42:01.636Z,100848.00
2022-10-22T03:44:30.374Z,100843.17
2022-10-22T03:47:01.750Z,100844.85
2022-10-22T03:49:28.999Z,100850.00
2022-10-22T03:51:57.608Z,100857.86
2022-10-22T03:54:26.249Z,100855.41
2022-10-22T03:56:54.704Z,100857.59
2022-10-22T03:59:23.261Z,100858.41
2022-10-22T04:01:51.692Z,100861.39
2022-10-22T04:04:20.284Z,100858.98
2022-10-22T04:06:49.011Z,100851.67
2022-10-22T04:09:17.512Z,100860.62
2022-10-22T04:11:46.076Z,100861.16
2022-10-22T04:14:14.522Z,100866.34
2022-10-22T04:16:43.349Z,100870.13
2022-10-22T04:19:12.143Z,100866.57
2022-10-22T04:21:40.723Z,100871.14
2022-10-22T04:24:09.202Z,100866.86
2022-10-22T04:26:37.786Z,100866.56
2022-10-22T04:29:10.553Z,100873.06
2022-10-22T04:31:37.173Z,100878.75
2022-10-22T04:34:05.853Z,100880.94
2022-10-22T04:36:35.918Z,100876.37
2022-10-22T04:39:04.700Z,100881.45
2022-10-22T04:41:34.409Z,100886.08
2022-10-22T04:44:02.892Z,100888.73
2022-10-22T04:46:32.555Z,100877.06
2022-10-22T04:49:02.722Z,100882.73
2022-10-22T04:51:31.614Z,100885.11
2022-10-22T04:53:59.947Z,100888.94
2022-10-22T04:56:29.625Z,100885.95
2022-10-22T04:58:59.741Z,100893.51
2022-10-22T05:01:29.495Z,100893.80
2022-10-22T05:03:58.821Z,100900.84
2022-10-22T05:06:28.036Z,100897.34
2022-10-22T05:08:57.507Z,100907.31
2022-10-22T05:11:28.311Z,100903.00
2022-10-22T05:13:57.384Z,100900.84
2022-10-22T05:16:26.072Z,100900.30
2022-10-22T05:18:54.752Z,100897.31
2022-10-22T05:21:23.350Z,100903.26
2022-10-22T05:23:51.941Z,100903.80
2022-10-22T05:26:20.655Z,100896.44
2022-10-22T05:28:49.650Z,100899.41
2022-10-22T05:31:18.369Z,100904.20
2022-10-22T05:33:47.181Z,100901.85
2022-10-22T05:36:20.098Z,100906.42
2022-10-22T05:38:48.719Z,100908.84
2022-10-22T05:41:18.934Z,100901.02
2022-10-22T05:43:47.671Z,100909.16
2022-10-22T05:46:22.228Z,100916.48
2022-10-22T05:48:51.522Z,100920.28
2022-10-22T05:51:20.206Z,100920.80
2022-10-22T05:53:50.329Z,100923.02
2022-10-22T05:56:18.966Z,100933.53
2022-10-22T05:58:47.490Z,100925.20
2022-10-22T06:01:17.450Z,100927.89
2022-10-22T06:03:46.367Z,100932.20
2022-10-22T06:06:34.309Z,100935.74
2022-10-22T06:09:10.309Z,100941.17
2022-10-22T06:11:39.080Z,100945.73
2022-10-22T06:14:07.521Z,100946.30
2022-10-22T06:16:35.963Z,100943.85
2022-10-22T06:19:05.252Z,100947.12
2022-10-22T06:21:33.736Z,100952.83
2022-10-22T06:24:02.453Z,100954.70
2022-10-22T06:26:31.316Z,100957.41
2022-10-22T06:29:00.462Z,100957.95
2022-10-22T06:31:29.087Z,100962.27
2022-10-22T06:33:58.047Z,100966.56
2022-10-22T06:36:26.731Z,100966.28
2022-10-22T06:38:55.832Z,100972.19
2022-10-22T06:41:28.554Z,100982.44
2022-10-22T06:43:55.801Z,100984.33
2022-10-22T06:46:26.030Z,100992.94
2022-10-22T06:48:56.179Z,100999.63
2022-10-22T06:51:24.688Z,100998.79
2022-10-22T06:53:53.679Z,101007.63
2022-10-22T06:56:22.947Z,101010.59
2022-10-22T06:58:51.970Z,101009.47
2022-10-22T07:01:21.360Z,101014.62
2022-10-22T07:03:51.551Z,101016.00
2022-10-22T07:06:20.297Z,101020.28
2022-10-22T07:08:48.834Z,101020.58
2022-10-22T07:11:18.478Z,101025.47
2022-10-22T07:13:47.368Z,101030.39
2022-10-22T07:16:16.165Z,101034.13
2022-10-22T07:18:45.014Z,101033.03
2022-10-22T07:21:13.922Z,101038.45
2022-10-22T07:23:42.362Z,101038.77
2022-10-22T07:26:12.373Z,101037.41
2022-10-22T07:28:41.364Z,101044.15
2022-10-22T07:31:10.367Z,101053.84
2022-10-22T07:33:39.065Z,101055.98
2022-10-22T07:36:08.870Z,101057.87
2022-10-22T07:38:37.667Z,101065.07
2022-10-22T07:41:06.602Z,101063.11
2022-10-22T07:43:35.185Z,101069.68
2022-10-22T07:46:03.755Z,101079.41
2022-10-22T07:48:32.254Z,101082.64
2022-10-22T07:51:00.629Z,101090.44
2022-10-22T07:53:29.066Z,101089.34
2022-10-22T07:55:57.596Z,101087.18
2022-10-22T07:58:26.242Z,101094.47
2022-10-22T08:00:58.277Z,101094.17
2022-10-22T08:03:26.929Z,101106.77
2022-10-22T08:05:55.557Z,101106.66
2022-10-22T08:08:27.169Z,101106.50
2022-10-22T08:10:54.527Z,101115.05
2022-10-22T08:13:23.894Z,101116.36
2022-10-22T08:15:56.421Z,101124.28
2022-10-22T08:18:22.939Z,101131.92
2022-10-22T08:20:52.167Z,101131.59
2022-10-22T08:23:24.493Z,101131.02
2022-10-22T08:25:51.050Z,101139.41
2022-10-22T08:28:21.288Z,101146.42
2022-10-22T08:30:49.989Z,101149.44
2022-10-22T08:33:18.615Z,101156.54
2022-10-22T08:35:49.038Z,101153.41
2022-10-22T08:38:18.112Z,101154.88
2022-10-22T08:43:30.914Z,101164.97
2022-10-22T08:46:00.998Z,101169.14
2022-10-22T08:48:31.206Z,101175.22
2022-10-22T08:50:59.883Z,101171.16
2022-10-22T08:53:42.340Z,101178.73
2022-10-22T08:56:12.260Z,101186.33
2022-10-22T08:58:51.568Z,101187.92
2022-10-22T09:01:23.315Z,101183.30
2022-10-22T09:03:53.394Z,101190.23
2022-10-22T09:06:26.031Z,101198.80
2022-10-22T09:08:54.692Z,101199.64
2022-10-22T09:11:36.953Z,101204.77
2022-10-22T09:14:05.610Z,101206.75
2022-10-22T09:16:38.840Z,101220.26
2022-10-22T09:19:27.105Z,101213.33
2022-10-22T09:21:57.294Z,101218.11
2022-10-22T09:24:32.277Z,101214.99
2022-10-22T09:27:14.960Z,101219.72
2022-10-22T09:29:44.249Z,101223.70
2022-10-22T09:32:12.925Z,101231.17
2022-10-22T09:34:41.391Z,101229.86
2022-10-22T09:37:10.383Z,101238.84
2022-10-22T09:39:44.037Z,101241.03
2022-10-22T09:42:13.202Z,101245.84
2022-10-22T09:44:44.922Z,101236.69
2022-10-22T09:47:42.985Z,101235.50
2022-10-22T09:50:19.916Z,101245.14
2022-10-22T09:53:02.302Z,101249.36
2022-10-22T09:55:30.933Z,101253.60
2022-10-22T09:58:00.365Z,101257.50
2022-10-22T10:00:30.374Z,101255.69
2022-10-22T10:02:59.421Z,101255.17
2022-10-22T10:05:29.633Z,101260.69
2022-10-22T10:07:58.302Z,101269.19
2022-10-22T10:10:28.689Z,101275.41
2022-10-22T10:13:04.713Z,101275.75
2022-10-22T10:15:39.889Z,101273.70
2022-10-22T10:18:27.134Z,101274.31
2022-10-22T10:20:57.294Z,101278.69
2022-10-22T10:23:27.463Z,101273.92
2022-10-22T10:26:03.637Z,101278.61
2022-10-22T10:28:33.854Z,101283.02
2022-10-22T10:31:22.039Z,101278.22
2022-10-22T10:33:52.032Z,101284.58
2022-10-22T10:36:22.085Z,101284.01
2022-10-22T10:39:01.416Z,101297.64
2022-10-22T10:41:34.677Z,101300.52
2022-10-22T10:44:13.873Z,101301.44
2022-10-22T10:46:46.778Z,101304.92
2022-10-22T10:49:19.723Z,101309.71
2022-10-22T10:51:53.023Z,101312.69
2022-10-22T10:54:26.709Z,101310.38
2022-10-22T10:56:59.392Z,101313.58
2022-10-22T10:59:42.003Z,101316.65
2022-10-22T11:02:20.980Z,101310.16
2022-10-22T11:05:09.684Z,101304.83
2022-10-22T11:07:42.849Z,101316.48
2022-10-22T11:10:22.317Z,101315.52
2022-10-22T11:12:52.439Z,101313.61
2022-10-22T11:15:32.438Z,101315.66
2022-10-22T11:18:14.489Z,101311.13
2022-10-22T11:20:45.068Z,101316.06
2022-10-22T11:23:20.625Z,101322.08
2022-10-22T11:25:49.216Z,101324.70
2022-10-22T11:28:25.306Z,101309.88
2022-10-22T11:30:55.411Z,101321.17
2022-10-22T11:33:25.380Z,101311.77
2022-10-22T11:35:53.888Z,101324.63
2022-10-22T11:38:23.741Z,101324.73
2022-10-22T11:40:53.533Z,101328.92
2022-10-22T11:43:29.627Z,101333.95
2022-10-22T11:45:59.713Z,101327.08
2022-10-22T11:48:28.889Z,101327.70
2022-10-22T11:50:59.626Z,101323.80
2022-10-22T11:53:30.621Z,101319.71
2022-10-22T11:56:10.744Z,101317.03
2022-10-22T11:58:42.484Z,101322.06
2022-10-22T12:01:12.652Z,101324.91
2022-10-22T12:03:44.099Z,101328.34
2022-10-22T12:06:18.316Z,101331.27
2022-10-22T12:08:48.651Z,101339.87
2022-10-22T12:11:18.261Z,101340.89
2022-10-22T12:14:06.605Z,101338.53
2022-10-22T12:19:19.669Z,101349.24
2022-10-22T12:21:49.301Z,101348.80
2022-10-22T12:24:18.839Z,101343.41
2022-10-22T12:26:49.313Z,101350.23
2022-10-22T12:29:17.998Z,101346.32
2022-10-22T12:31:47.135Z,101330.91
2022-10-22T12:34:17.140Z,101351.60
2022-10-22T12:36:45.830Z,101342.85
2022-10-22T12:39:15.772Z,101342.79
2022-10-22T12:41:44.882Z,101340.70
2022-10-22T12:44:14.735Z,101341.05
2022-10-22T12:46:43.650Z,101350.57
2022-10-22T12:49:16.312Z,101334.55
2022-10-22T12:51:45.010Z,101332.52
2022-10-22T12:54:15.043Z,101330.22
2022-10-22T12:56:43.519Z,101331.09
2022-10-22T12:59:16.626Z,101330.83
2022-10-22T13:01:45.120Z,101324.52
2022-10-22T13:04:15.130Z,101334.15
2022-10-22T13:06:47.184Z,101335.14
2022-10-22T13:09:17.335Z,101337.57
2022-10-22T13:11:50.455Z,101343.72
2022-10-22T13:14:21.514Z,101336.25
2022-10-22T13:17:08.786Z,101328.97
2022-10-22T13:19:38.322Z,101327.48
2022-10-22T13:22:08.690Z,101333.62
2022-10-22T13:24:38.813Z,101336.99
2022-10-22T13:27:08.651Z,101338.69
2022-10-22T13:29:38.486Z,101333.62
2022-10-22T13:32:08.682Z,101331.53
2022-10-22T13:34:37.367Z,101329.31
2022-10-22T13:37:06.780Z,101332.59
2022-10-22T13:39:37.001Z,101334.27
2022-10-22T13:42:08.299Z,101328.19
2022-10-22T13:44:36.797Z,101326.67
2022-10-22T13:47:06.866Z,101327.78
2022-10-22T13:49:35.327Z,101329.58
2022-10-22T13:52:04.194Z,101327.55
2022-10-22T13:54:32.782Z,101328.77
2022-10-22T13:57:01.336Z,101337.48
2022-10-22T13:59:29.943Z,101335.28
2022-10-22T14:01:58.708Z,101340.16
2022-10-22T14:04:27.190Z,101341.59
2022-10-22T14:06:57.683Z,101342.29
2022-10-22T14:09:25.840Z,101347.66
2022-10-22T14:11:54.465Z,101353.00
2022-10-22T14:14:22.996Z,101348.78
2022-10-22T14:16:51.494Z,101357.12
2022-10-22T14:19:19.921Z,101359.05
2022-10-22T14:21:49.293Z,101361.55
2022-10-22T14:24:17.851Z,101358.64
2022-10-22T14:26:46.569Z,101352.39
2022-10-22T14:29:15.083Z,101358.97
2022-10-22T14:31:44.562Z,101352.08
2022-10-22T14:34:14.763Z,101354.12
2022-10-22T14:36:44.925Z,101362.52
2022-10-22T14:39:14.113Z,101352.70
2022-10-22T14:41:42.641Z,101352.13
2022-10-22T14:44:14.319Z,101356.94
2022-10-22T14:46:46.397Z,101358.80
2022-10-22T14:49:14.842Z,101357.19
2022-10-22T14:51:43.373Z,101354.77
2022-10-22T14:54:12.040Z,101351.77
2022-10-22T14:56:40.723Z,101355.05
2022-10-22T14:59:09.391Z,101350.91
2022-10-22T15:01:40.948Z,101357.91
2022-10-22T15:04:09.349Z,101364.85
2022-10-22T15:06:37.867Z,101355.59
2022-10-22T15:09:08.187Z,101361.02
2022-10-22T16:52:16.032Z,101319.91
2022-10-22T16:54:46.757Z,101326.09
2022-10-22T16:57:16.057Z,101332.52
2022-10-22T16:59:45.475Z,101340.05
2022-10-22T17:02:14.831Z,101343.11
2022-10-22T17:04:44.264Z,101348.81
2022-10-22T17:07:13.546Z,101353.66
2022-10-22T17:12:08.233Z,101354.84
2022-10-22T17:14:37.702Z,101350.77
2022-10-22T17:17:06.935Z,101355.87
2022-10-22T17:19:37.955Z,101349.00
2022-10-22T17:22:07.186Z,101346.68
2022-10-22T17:24:36.514Z,101348.69
2022-10-22T17:27:05.750Z,101348.75
2022-10-22T17:29:36.486Z,101356.39
2022-10-22T17:32:06.067Z,101358.92
2022-10-22T17:34:35.334Z,101358.95
2022-10-22T17:37:04.581Z,101352.45
2022-10-22T17:39:33.829Z,101349.23
2022-10-22T17:42:03.067Z,101348.95
2022-10-22T17:44:32.322Z,101341.09
2022-10-22T17:47:01.773Z,101343.88
2022-10-22T17:49:31.138Z,101348.48
2022-10-22T17:54:30.345Z,101355.10
2022-10-22T17:56:59.847Z,101351.85
2022-10-22T17:59:29.284Z,101352.16
2022-10-22T18:02:00.338Z,101353.83
2022-10-22T18:04:31.203Z,101362.55
2022-10-22T18:07:00.806Z,101366.94
2022-10-22T18:09:30.111Z,101375.94
2022-10-22T18:11:59.340Z,101376.24
2022-10-22T18:14:28.749Z,101382.80
2022-10-22T18:16:58.149Z,101387.44
2022-10-22T18:19:27.388Z,101385.55
2022-10-22T18:21:56.718Z,101392.91
2022-10-22T18:24:25.988Z,101388.82
2022-10-22T18:26:55.269Z,101382.08
2022-10-22T18:29:24.530Z,101389.16
2022-10-22T18:31:53.806Z,101393.79
2022-10-22T18:34:24.025Z,101391.38
2022-10-22T18:36:53.435Z,101391.93
2022-10-22T18:39:23.012Z,101383.52
2022-10-22T18:41:52.246Z,101384.62
2022-10-22T18:44:23.130Z,101392.79
2022-10-22T18:46:52.441Z,101381.63
2022-10-22T18:49:21.755Z,101384.34
2022-10-22T18:51:52.870Z,101380.01
2022-10-22T18:54:24.243Z,101376.48
2022-10-22T18:56:59.325Z,101370.79
2022-10-22T18:59:28.453Z,101362.93
2022-10-22T19:01:59.626Z,101365.65
2022-10-22T19:04:32.398Z,101352.31
2022-10-22T19:07:01.799Z,101357.51
2022-10-22T19:09:31.402Z,101359.92
2022-10-22T19:12:01.174Z,101359.98
2022-10-22T19:14:30.419Z,101349.66
2022-10-22T19:16:59.709Z,101345.57
2022-10-22T19:19:29.171Z,101346.68
2022-10-22T19:21:59.518Z,101344.52
2022-10-22T19:24:29.971Z,101346.95
2022-10-22T19:26:59.213Z,101352.39
2022-10-22T19:29:28.708Z,101359.20
2022-10-22T19:31:58.033Z,101367.11
2022-10-22T19:34:27.406Z,101357.59
2022-10-22T19:36:56.673Z,101359.50
2022-10-22T19:39:26.081Z,101356.50
2022-10-22T19:41:55.418Z,101357.06
2022-10-22T19:44:24.710Z,101352.72
2022-10-22T19:46:54.217Z,101356.25
2022-10-22T19:49:23.734Z,101353.53
2022-10-22T19:51:52.985Z,101353.28
2022-10-22T19:54:22.552Z,101353.83
2022-10-22T19:56:51.892Z,101350.28
2022-10-22T19:59:22.861Z,101353.00
2022-10-22T20:01:52.062Z,101350.03
2022-10-22T20:04:23.069Z,101345.95
2022-10-22T20:06:52.309Z,101344.58
2022-10-22T20:09:21.950Z,101342.72
2022-10-22T20:11:51.275Z,101343.53
2022-10-22T20:14:20.713Z,101344.33
2022-10-22T20:16:50.305Z,101340.55
2022-10-22T20:19:19.683Z,101348.16
2022-10-22T20:21:50.457Z,101350.88
2022-10-22T20:24:19.764Z,101340.00
2022-10-22T20:26:49.216Z,101346.55
2022-10-22T20:29:19.130Z,101346.27
2022-10-22T20:31:48.693Z,101343.83
2022-10-22T20:34:18.390Z,101350.10
2022-10-22T20:36:47.897Z,101348.19
2022-10-22T20:39:17.282Z,101348.99
2022-10-22T20:41:46.808Z,101365.06
2022-10-22T20:44:18.276Z,101364.27
2022-10-22T20:46:47.750Z,101364.81
2022-10-22T20:49:17.556Z,101359.92
2022-10-22T20:51:47.067Z,101364.56
2022-10-22T20:54:16.803Z,101361.59
2022-10-22T20:56:47.818Z,101366.48
2022-10-22T20:59:17.244Z,101367.03
2022-10-22T21:01:49.154Z,101375.20
2022-10-22T21:04:19.810Z,101383.63
2022-10-22T21:06:50.456Z,101378.19
2022-10-22T21:09:20.352Z,101374.94
2022-10-22T21:11:50.055Z,101370.58
2022-10-22T21:14:21.966Z,101363.23
2022-10-22T21:16:52.080Z,101365.14
2022-10-22T21:19:22.950Z,101364.89
2022-10-22T21:21:52.446Z,101362.97
2022-10-22T21:24:23.402Z,101364.64
2022-10-22T21:26:53.278Z,101370.33
2022-10-22T21:29:22.859Z,101367.61
2022-10-22T21:31:53.851Z,101361.91
2022-10-22T21:34:23.106Z,101373.35
2022-10-22T21:36:52.913Z,101370.63
2022-10-22T21:39:22.220Z,101372.55
2022-10-22T21:41:51.650Z,101375.52
2022-10-22T21:44:20.904Z,101369.58
2022-10-22T21:46:50.350Z,101364.39
2022-10-22T21:49:19.700Z,101364.13
2022-10-22T21:51:49.077Z,101363.58
2022-10-22T21:54:18.493Z,101368.22
2022-10-22T21:56:49.103Z,101366.05
2022-10-22T21:59:18.383Z,101365.21
2022-10-22T22:01:47.720Z,101362.49
2022-10-22T22:04:17.035Z,101363.05
2022-10-22T22:06:46.357Z,101360.33
2022-10-22T22:09:15.801Z,101357.61
2022-10-22T22:11:45.180Z,101351.36
2022-10-22T22:14:16.179Z,101352.72
2022-10-22T22:16:45.428Z,101356.80
2022-10-22T22:19:15.310Z,101347.83
2022-10-22T22:21:44.625Z,101344.56
2022-10-22T22:24:14.488Z,101343.75
2022-10-22T22:26:43.949Z,101338.87
2022-10-22T22:29:13.350Z,101339.98
2022-10-22T22:31:43.797Z,101341.34
2022-10-22T22:34:15.879Z,101349.75
2022-10-22T22:36:47.251Z,101349.50
2022-10-22T22:39:19.562Z,101347.03
2022-10-22T22:41:48.994Z,101348.14
2022-10-22T22:44:18.806Z,101340.28
2022-10-22T22:46:48.134Z,101328.55
2022-10-22T22:49:17.631Z,101325.57
2022-10-22T22:51:47.039Z,101327.48
2022-10-22T22:54:16.393Z,101323.41
2022-10-22T22:56:45.951Z,101331.56
2022-10-22T22:59:15.196Z,101338.92
2022-10-22T23:01:45.548Z,101339.73
2022-10-22T23:04:20.591Z,101328.59
2022-10-22T23:06:50.453Z,101338.37
2022-10-22T23:11:51.230Z,101320.16
2022-10-22T23:14:21.421Z,101309.28
2022-10-22T23:16:52.246Z,101297.59
2022-10-22T23:19:23.113Z,101298.67
2022-10-22T23:21:55.009Z,101292.95
2022-10-22T23:24:26.753Z,101302.47
2022-10-22T23:26:57.541Z,101298.14
2022-10-22T23:29:28.597Z,101296.78
2022-10-22T23:32:02.992Z,101289.98
2022-10-22T23:34:33.186Z,101283.98
2022-10-22T23:37:02.687Z,101284.80
2022-10-22T23:39:32.045Z,101285.91
2022-10-22T23:42:01.383Z,101285.10
2022-10-22T23:44:30.897Z,101282.38
2022-10-22T23:47:00.296Z,101280.22
2022-10-22T23:49:29.551Z,101284.85
2022-10-22T23:51:58.774Z,101277.50
2022-10-22T23:54:28.185Z,101281.58
2022-10-22T23:56:57.418Z,101279.41
2022-10-22T23:59:26.892Z,101282.94
